sensor_id;sensor_type;location;lat;lon;timestamp;temperature;humidity
74171;DHT22;62526;50.948;6.590;2023-03-19T00:01:48;11.80;99.90
74171;DHT22;62526;50.948;6.590;2023-03-19T00:04:15;11.70;99.90
74171;DHT22;62526;50.948;6.590;2023-03-19T00:06:42;11.60;99.90
74171;DHT22;62526;50.948;6.590;2023-03-19T00:09:08;11.60;99.90
74171;DHT22;62526;50.948;6.590;2023-03-19T00:11:35;11.50;99.90
74171;DHT22;62526;50.948;6.590;2023-03-19T00:14:01;11.40;99.90
74171;DHT22;62526;50.948;6.590;2023-03-19T00:16:28;11.30;99.90
74171;DHT22;62526;50.948;6.590;2023-03-19T00:18:55;11.20;99.90
74171;DHT22;62526;50.948;6.590;2023-03-19T00:21:22;11.20;99.90
74171;DHT22;62526;50.948;6.590;2023-03-19T00:23:49;11.20;99.90
74171;DHT22;62526;50.948;6.590;2023-03-19T00:26:16;11.10;99.90
74171;DHT22;62526;50.948;6.590;2023-03-19T00:28:43;11.00;99.90
74171;DHT22;62526;50.948;6.590;2023-03-19T00:31:10;10.90;99.90
74171;DHT22;62526;50.948;6.590;2023-03-19T00:33:36;10.80;99.90
74171;DHT22;62526;50.948;6.590;2023-03-19T00:36:03;10.80;99.90
74171;DHT22;62526;50.948;6.590;2023-03-19T00:38:30;10.80;99.90
74171;DHT22;62526;50.948;6.590;2023-03-19T00:40:56;10.80;99.90
74171;DHT22;62526;50.948;6.590;2023-03-19T00:43:23;10.80;99.90
74171;DHT22;62526;50.948;6.590;2023-03-19T00:45:50;10.80;99.90
74171;DHT22;62526;50.948;6.590;2023-03-19T00:48:17;10.80;99.90
74171;DHT22;62526;50.948;6.590;2023-03-19T00:50:43;10.80;99.90
74171;DHT22;62526;50.948;6.590;2023-03-19T00:53:11;10.90;99.90
74171;DHT22;62526;50.948;6.590;2023-03-19T00:55:38;10.90;99.90
74171;DHT22;62526;50.948;6.590;2023-03-19T00:58:04;10.90;99.90
74171;DHT22;62526;50.948;6.590;2023-03-19T01:00:32;10.90;99.90
74171;DHT22;62526;50.948;6.590;2023-03-19T01:02:58;10.80;99.90
74171;DHT22;62526;50.948;6.590;2023-03-19T01:05:25;10.80;99.90
74171;DHT22;62526;50.948;6.590;2023-03-19T01:07:52;10.70;99.90
74171;DHT22;62526;50.948;6.590;2023-03-19T01:10:19;10.60;99.90
74171;DHT22;62526;50.948;6.590;2023-03-19T01:12:46;10.60;99.90
74171;DHT22;62526;50.948;6.590;2023-03-19T01:15:12;10.50;99.90
74171;DHT22;62526;50.948;6.590;2023-03-19T01:17:39;10.50;99.90
74171;DHT22;62526;50.948;6.590;2023-03-19T01:20:06;10.40;99.90
74171;DHT22;62526;50.948;6.590;2023-03-19T01:22:34;10.40;99.90
74171;DHT22;62526;50.948;6.590;2023-03-19T01:24:59;10.40;99.90
74171;DHT22;62526;50.948;6.590;2023-03-19T01:27:26;10.40;99.90
74171;DHT22;62526;50.948;6.590;2023-03-19T01:29:53;10.40;99.90
74171;DHT22;62526;50.948;6.590;2023-03-19T01:32:20;10.40;99.90
74171;DHT22;62526;50.948;6.590;2023-03-19T01:34:47;10.50;99.90
74171;DHT22;62526;50.948;6.590;2023-03-19T01:37:14;10.60;99.90
74171;DHT22;62526;50.948;6.590;2023-03-19T01:39:40;10.60;99.90
74171;DHT22;62526;50.948;6.590;2023-03-19T01:42:08;10.60;99.90
74171;DHT22;62526;50.948;6.590;2023-03-19T01:44:35;10.70;99.90
74171;DHT22;62526;50.948;6.590;2023-03-19T01:47:04;10.70;99.90
74171;DHT22;62526;50.948;6.590;2023-03-19T01:49:29;10.80;99.90
74171;DHT22;62526;50.948;6.590;2023-03-19T01:51:55;10.90;99.90
74171;DHT22;62526;50.948;6.590;2023-03-19T01:54:22;11.00;99.90
74171;DHT22;62526;50.948;6.590;2023-03-19T01:56:52;11.20;99.90
74171;DHT22;62526;50.948;6.590;2023-03-19T01:59:24;11.20;99.90
74171;DHT22;62526;50.948;6.590;2023-03-19T02:01:53;11.30;99.90
74171;DHT22;62526;50.948;6.590;2023-03-19T02:04:20;11.40;99.90
74171;DHT22;62526;50.948;6.590;2023-03-19T02:06:46;11.40;99.90
74171;DHT22;62526;50.948;6.590;2023-03-19T02:09:13;11.50;99.90
74171;DHT22;62526;50.948;6.590;2023-03-19T02:11:41;11.50;99.90
74171;DHT22;62526;50.948;6.590;2023-03-19T02:14:08;11.60;99.90
74171;DHT22;62526;50.948;6.590;2023-03-19T02:16:34;11.60;99.90
74171;DHT22;62526;50.948;6.590;2023-03-19T02:19:01;11.60;99.90
74171;DHT22;62526;50.948;6.590;2023-03-19T02:21:28;11.70;99.90
74171;DHT22;62526;50.948;6.590;2023-03-19T02:26:40;11.80;99.90
74171;DHT22;62526;50.948;6.590;2023-03-19T02:29:06;11.80;99.90
74171;DHT22;62526;50.948;6.590;2023-03-19T02:31:32;11.80;99.90
74171;DHT22;62526;50.948;6.590;2023-03-19T02:34:01;11.80;99.90
74171;DHT22;62526;50.948;6.590;2023-03-19T02:36:29;11.80;99.90
74171;DHT22;62526;50.948;6.590;2023-03-19T02:38:55;11.80;99.90
74171;DHT22;62526;50.948;6.590;2023-03-19T02:41:22;11.80;99.90
74171;DHT22;62526;50.948;6.590;2023-03-19T02:43:50;11.80;99.90
74171;DHT22;62526;50.948;6.590;2023-03-19T02:46:16;11.90;99.90
74171;DHT22;62526;50.948;6.590;2023-03-19T02:48:43;11.80;99.90
74171;DHT22;62526;50.948;6.590;2023-03-19T02:51:10;11.80;99.90
74171;DHT22;62526;50.948;6.590;2023-03-19T02:53:36;11.80;99.90
74171;DHT22;62526;50.948;6.590;2023-03-19T02:56:03;11.80;99.90
74171;DHT22;62526;50.948;6.590;2023-03-19T02:58:30;11.70;99.90
74171;DHT22;62526;50.948;6.590;2023-03-19T03:00:56;11.60;99.90
74171;DHT22;62526;50.948;6.590;2023-03-19T03:03:23;11.50;99.90
74171;DHT22;62526;50.948;6.590;2023-03-19T03:05:50;11.40;99.90
74171;DHT22;62526;50.948;6.590;2023-03-19T03:08:17;11.30;99.90
74171;DHT22;62526;50.948;6.590;2023-03-19T03:10:43;11.30;99.90
74171;DHT22;62526;50.948;6.590;2023-03-19T03:13:10;11.20;99.90
74171;DHT22;62526;50.948;6.590;2023-03-19T03:15:37;11.10;99.90
74171;DHT22;62526;50.948;6.590;2023-03-19T03:18:03;11.10;99.90
74171;DHT22;62526;50.948;6.590;2023-03-19T03:20:31;11.00;99.90
74171;DHT22;62526;50.948;6.590;2023-03-19T03:22:57;10.90;99.90
74171;DHT22;62526;50.948;6.590;2023-03-19T03:25:24;10.80;99.90
74171;DHT22;62526;50.948;6.590;2023-03-19T03:27:51;10.70;99.90
74171;DHT22;62526;50.948;6.590;2023-03-19T03:30:18;10.90;99.90
74171;DHT22;62526;50.948;6.590;2023-03-19T03:32:45;10.60;99.90
74171;DHT22;62526;50.948;6.590;2023-03-19T03:35:12;10.50;99.90
74171;DHT22;62526;50.948;6.590;2023-03-19T03:37:38;10.40;99.90
74171;DHT22;62526;50.948;6.590;2023-03-19T03:40:05;10.40;99.90
74171;DHT22;62526;50.948;6.590;2023-03-19T03:42:33;10.40;99.90
74171;DHT22;62526;50.948;6.590;2023-03-19T03:44:59;10.30;99.90
74171;DHT22;62526;50.948;6.590;2023-03-19T03:47:26;10.30;99.90
74171;DHT22;62526;50.948;6.590;2023-03-19T03:49:53;10.30;99.90
74171;DHT22;62526;50.948;6.590;2023-03-19T03:52:19;10.30;99.90
74171;DHT22;62526;50.948;6.590;2023-03-19T03:54:47;10.30;99.90
74171;DHT22;62526;50.948;6.590;2023-03-19T03:57:13;10.20;99.90
74171;DHT22;62526;50.948;6.590;2023-03-19T03:59:40;10.20;99.90
74171;DHT22;62526;50.948;6.590;2023-03-19T04:02:07;10.20;99.90
74171;DHT22;62526;50.948;6.590;2023-03-19T04:04:33;10.20;99.90
74171;DHT22;62526;50.948;6.590;2023-03-19T04:07:00;10.20;99.90
74171;DHT22;62526;50.948;6.590;2023-03-19T04:09:27;10.20;99.90
74171;DHT22;62526;50.948;6.590;2023-03-19T04:11:54;10.30;99.90
74171;DHT22;62526;50.948;6.590;2023-03-19T04:14:21;10.30;99.90
74171;DHT22;62526;50.948;6.590;2023-03-19T04:16:48;10.40;99.90
74171;DHT22;62526;50.948;6.590;2023-03-19T04:19:16;10.40;99.90
74171;DHT22;62526;50.948;6.590;2023-03-19T04:21:42;10.40;99.90
74171;DHT22;62526;50.948;6.590;2023-03-19T04:24:09;10.50;99.90
74171;DHT22;62526;50.948;6.590;2023-03-19T04:26:36;10.50;99.90
74171;DHT22;62526;50.948;6.590;2023-03-19T04:29:03;10.60;99.90
74171;DHT22;62526;50.948;6.590;2023-03-19T04:31:29;10.60;99.90
74171;DHT22;62526;50.948;6.590;2023-03-19T04:33:56;10.70;99.90
74171;DHT22;62526;50.948;6.590;2023-03-19T04:36:23;10.70;99.90
74171;DHT22;62526;50.948;6.590;2023-03-19T04:38:50;10.70;99.90
74171;DHT22;62526;50.948;6.590;2023-03-19T04:41:17;10.70;99.90
74171;DHT22;62526;50.948;6.590;2023-03-19T04:43:44;10.80;99.90
74171;DHT22;62526;50.948;6.590;2023-03-19T04:46:11;10.80;99.90
74171;DHT22;62526;50.948;6.590;2023-03-19T04:48:37;10.80;99.90
74171;DHT22;62526;50.948;6.590;2023-03-19T04:51:04;10.90;99.90
74171;DHT22;62526;50.948;6.590;2023-03-19T04:53:32;11.00;99.90
74171;DHT22;62526;50.948;6.590;2023-03-19T04:55:58;11.00;99.90
74171;DHT22;62526;50.948;6.590;2023-03-19T04:58:25;11.10;99.90
74171;DHT22;62526;50.948;6.590;2023-03-19T05:00:52;11.10;99.90
74171;DHT22;62526;50.948;6.590;2023-03-19T05:03:19;11.20;99.90
74171;DHT22;62526;50.948;6.590;2023-03-19T05:05:46;11.20;99.90
74171;DHT22;62526;50.948;6.590;2023-03-19T05:08:12;11.20;99.90
74171;DHT22;62526;50.948;6.590;2023-03-19T05:10:39;11.20;99.90
74171;DHT22;62526;50.948;6.590;2023-03-19T05:13:06;11.20;99.90
74171;DHT22;62526;50.948;6.590;2023-03-19T05:15:32;11.20;99.90
74171;DHT22;62526;50.948;6.590;2023-03-19T05:17:59;11.20;99.90
74171;DHT22;62526;50.948;6.590;2023-03-19T05:20:25;11.30;99.90
74171;DHT22;62526;50.948;6.590;2023-03-19T05:22:52;11.40;99.90
74171;DHT22;62526;50.948;6.590;2023-03-19T05:25:19;11.40;99.90
74171;DHT22;62526;50.948;6.590;2023-03-19T05:27:45;11.50;99.90
74171;DHT22;62526;50.948;6.590;2023-03-19T05:30:12;11.60;99.90
74171;DHT22;62526;50.948;6.590;2023-03-19T05:32:39;11.60;99.90
74171;DHT22;62526;50.948;6.590;2023-03-19T05:35:06;11.60;99.90
74171;DHT22;62526;50.948;6.590;2023-03-19T05:37:33;11.70;99.90
74171;DHT22;62526;50.948;6.590;2023-03-19T05:40:00;11.70;99.90
74171;DHT22;62526;50.948;6.590;2023-03-19T05:42:27;11.80;99.90
74171;DHT22;62526;50.948;6.590;2023-03-19T05:44:54;11.80;99.90
74171;DHT22;62526;50.948;6.590;2023-03-19T05:47:21;11.80;99.90
74171;DHT22;62526;50.948;6.590;2023-03-19T05:49:48;11.80;99.90
74171;DHT22;62526;50.948;6.590;2023-03-19T05:52:15;11.90;99.90
74171;DHT22;62526;50.948;6.590;2023-03-19T05:54:42;11.90;99.90
74171;DHT22;62526;50.948;6.590;2023-03-19T05:57:08;11.80;99.90
74171;DHT22;62526;50.948;6.590;2023-03-19T05:59:36;11.80;99.90
74171;DHT22;62526;50.948;6.590;2023-03-19T06:02:02;11.70;99.90
74171;DHT22;62526;50.948;6.590;2023-03-19T06:04:29;11.70;99.90
74171;DHT22;62526;50.948;6.590;2023-03-19T06:06:56;11.60;99.90
74171;DHT22;62526;50.948;6.590;2023-03-19T06:09:22;11.60;99.90
74171;DHT22;62526;50.948;6.590;2023-03-19T06:11:50;11.50;99.90
74171;DHT22;62526;50.948;6.590;2023-03-19T06:14:17;11.50;99.90
74171;DHT22;62526;50.948;6.590;2023-03-19T06:16:44;12.50;99.90
74171;DHT22;62526;50.948;6.590;2023-03-19T06:19:11;11.50;99.90
74171;DHT22;62526;50.948;6.590;2023-03-19T06:21:38;11.50;99.90
74171;DHT22;62526;50.948;6.590;2023-03-19T06:24:04;11.60;99.90
74171;DHT22;62526;50.948;6.590;2023-03-19T06:26:31;11.60;99.90
74171;DHT22;62526;50.948;6.590;2023-03-19T06:28:58;11.60;99.90
74171;DHT22;62526;50.948;6.590;2023-03-19T06:31:25;11.60;99.90
74171;DHT22;62526;50.948;6.590;2023-03-19T06:33:58;11.70;99.90
74171;DHT22;62526;50.948;6.590;2023-03-19T06:36:25;11.60;99.90
74171;DHT22;62526;50.948;6.590;2023-03-19T06:38:52;11.80;99.90
74171;DHT22;62526;50.948;6.590;2023-03-19T06:41:18;11.80;99.90
74171;DHT22;62526;50.948;6.590;2023-03-19T06:43:45;11.80;99.90
74171;DHT22;62526;50.948;6.590;2023-03-19T06:46:12;11.70;99.90
74171;DHT22;62526;50.948;6.590;2023-03-19T06:48:39;11.70;99.90
74171;DHT22;62526;50.948;6.590;2023-03-19T06:51:06;11.70;99.90
74171;DHT22;62526;50.948;6.590;2023-03-19T06:53:32;11.70;99.90
74171;DHT22;62526;50.948;6.590;2023-03-19T06:55:59;11.70;99.90
74171;DHT22;62526;50.948;6.590;2023-03-19T06:58:26;11.80;99.90
74171;DHT22;62526;50.948;6.590;2023-03-19T07:00:52;11.80;99.90
74171;DHT22;62526;50.948;6.590;2023-03-19T07:03:19;11.80;99.90
74171;DHT22;62526;50.948;6.590;2023-03-19T07:05:47;11.90;99.90
74171;DHT22;62526;50.948;6.590;2023-03-19T07:08:13;11.90;99.90
74171;DHT22;62526;50.948;6.590;2023-03-19T07:10:39;11.90;99.90
74171;DHT22;62526;50.948;6.590;2023-03-19T07:13:06;11.90;99.90
74171;DHT22;62526;50.948;6.590;2023-03-19T07:15:33;12.00;99.90
74171;DHT22;62526;50.948;6.590;2023-03-19T07:17:59;12.00;99.90
74171;DHT22;62526;50.948;6.590;2023-03-19T07:20:26;12.00;99.90
74171;DHT22;62526;50.948;6.590;2023-03-19T07:22:52;12.10;99.90
74171;DHT22;62526;50.948;6.590;2023-03-19T07:25:19;12.20;99.90
74171;DHT22;62526;50.948;6.590;2023-03-19T07:27:46;12.30;99.90
74171;DHT22;62526;50.948;6.590;2023-03-19T07:30:13;12.40;99.90
74171;DHT22;62526;50.948;6.590;2023-03-19T07:32:39;12.50;99.90
74171;DHT22;62526;50.948;6.590;2023-03-19T07:35:07;12.70;99.90
74171;DHT22;62526;50.948;6.590;2023-03-19T07:37:34;12.80;99.90
74171;DHT22;62526;50.948;6.590;2023-03-19T07:40:01;12.80;99.90
74171;DHT22;62526;50.948;6.590;2023-03-19T07:42:28;12.80;99.90
74171;DHT22;62526;50.948;6.590;2023-03-19T07:44:55;12.90;99.90
74171;DHT22;62526;50.948;6.590;2023-03-19T07:47:21;12.90;99.90
74171;DHT22;62526;50.948;6.590;2023-03-19T07:49:48;13.00;99.90
74171;DHT22;62526;50.948;6.590;2023-03-19T07:52:14;13.10;99.90
74171;DHT22;62526;50.948;6.590;2023-03-19T07:54:41;13.10;99.90
74171;DHT22;62526;50.948;6.590;2023-03-19T07:57:08;13.10;99.90
74171;DHT22;62526;50.948;6.590;2023-03-19T07:59:34;13.10;99.90
74171;DHT22;62526;50.948;6.590;2023-03-19T08:02:01;13.10;99.90
74171;DHT22;62526;50.948;6.590;2023-03-19T08:04:28;13.10;99.90
74171;DHT22;62526;50.948;6.590;2023-03-19T08:06:55;13.10;99.90
74171;DHT22;62526;50.948;6.590;2023-03-19T08:09:21;13.10;99.90
74171;DHT22;62526;50.948;6.590;2023-03-19T08:11:49;13.10;99.90
74171;DHT22;62526;50.948;6.590;2023-03-19T08:14:15;13.10;99.90
74171;DHT22;62526;50.948;6.590;2023-03-19T08:16:43;13.20;99.90
74171;DHT22;62526;50.948;6.590;2023-03-19T08:19:09;13.40;99.90
74171;DHT22;62526;50.948;6.590;2023-03-19T08:21:37;13.50;99.90
74171;DHT22;62526;50.948;6.590;2023-03-19T08:24:04;13.50;99.90
74171;DHT22;62526;50.948;6.590;2023-03-19T08:26:30;13.50;99.90
74171;DHT22;62526;50.948;6.590;2023-03-19T08:28:57;13.50;99.90
74171;DHT22;62526;50.948;6.590;2023-03-19T08:31:24;13.50;99.90
74171;DHT22;62526;50.948;6.590;2023-03-19T08:33:50;13.40;99.90
74171;DHT22;62526;50.948;6.590;2023-03-19T08:36:18;13.40;99.90
74171;DHT22;62526;50.948;6.590;2023-03-19T08:38:44;13.40;99.90
74171;DHT22;62526;50.948;6.590;2023-03-19T08:41:11;13.50;99.90
74171;DHT22;62526;50.948;6.590;2023-03-19T08:43:39;13.60;99.90
74171;DHT22;62526;50.948;6.590;2023-03-19T08:46:06;13.70;99.90
74171;DHT22;62526;50.948;6.590;2023-03-19T08:48:33;13.80;99.90
74171;DHT22;62526;50.948;6.590;2023-03-19T08:51:01;14.00;99.90
74171;DHT22;62526;50.948;6.590;2023-03-19T08:53:27;14.10;99.90
74171;DHT22;62526;50.948;6.590;2023-03-19T08:55:54;14.20;99.90
74171;DHT22;62526;50.948;6.590;2023-03-19T08:58:20;14.40;99.90
74171;DHT22;62526;50.948;6.590;2023-03-19T09:00:47;14.60;99.90
74171;DHT22;62526;50.948;6.590;2023-03-19T09:03:14;14.70;99.90
74171;DHT22;62526;50.948;6.590;2023-03-19T09:05:41;14.90;99.90
74171;DHT22;62526;50.948;6.590;2023-03-19T09:08:08;15.00;99.90
74171;DHT22;62526;50.948;6.590;2023-03-19T09:10:35;15.10;99.90
74171;DHT22;62526;50.948;6.590;2023-03-19T09:13:02;15.00;99.90
74171;DHT22;62526;50.948;6.590;2023-03-19T09:15:28;15.10;99.90
74171;DHT22;62526;50.948;6.590;2023-03-19T09:17:55;15.20;99.90
74171;DHT22;62526;50.948;6.590;2023-03-19T09:20:22;15.30;99.90
74171;DHT22;62526;50.948;6.590;2023-03-19T09:22:49;15.40;99.90
74171;DHT22;62526;50.948;6.590;2023-03-19T09:25:16;15.60;99.90
74171;DHT22;62526;50.948;6.590;2023-03-19T09:27:42;15.80;99.90
74171;DHT22;62526;50.948;6.590;2023-03-19T09:30:10;15.90;99.90
74171;DHT22;62526;50.948;6.590;2023-03-19T09:35:19;16.00;99.90
74171;DHT22;62526;50.948;6.590;2023-03-19T09:37:46;16.10;99.90
74171;DHT22;62526;50.948;6.590;2023-03-19T09:40:26;16.00;99.90
74171;DHT22;62526;50.948;6.590;2023-03-19T09:43:08;16.10;99.90
74171;DHT22;62526;50.948;6.590;2023-03-19T09:45:31;16.20;99.90
74171;DHT22;62526;50.948;6.590;2023-03-19T09:48:01;16.40;99.90
74171;DHT22;62526;50.948;6.590;2023-03-19T09:50:26;16.50;99.90
74171;DHT22;62526;50.948;6.590;2023-03-19T09:52:58;16.60;99.90
74171;DHT22;62526;50.948;6.590;2023-03-19T09:55:40;16.70;99.90
74171;DHT22;62526;50.948;6.590;2023-03-19T09:58:12;16.70;99.90
74171;DHT22;62526;50.948;6.590;2023-03-19T10:00:38;16.70;99.90
74171;DHT22;62526;50.948;6.590;2023-03-19T10:03:22;16.80;99.90
74171;DHT22;62526;50.948;6.590;2023-03-19T10:05:50;16.60;99.90
74171;DHT22;62526;50.948;6.590;2023-03-19T10:10:58;16.40;99.90
74171;DHT22;62526;50.948;6.590;2023-03-19T10:16:20;16.30;99.90
74171;DHT22;62526;50.948;6.590;2023-03-19T10:18:46;16.10;99.90
74171;DHT22;62526;50.948;6.590;2023-03-19T10:21:18;16.10;99.90
74171;DHT22;62526;50.948;6.590;2023-03-19T10:26:29;15.90;99.90
74171;DHT22;62526;50.948;6.590;2023-03-19T10:28:58;15.90;99.90
74171;DHT22;62526;50.948;6.590;2023-03-19T10:31:27;15.90;99.90
74171;DHT22;62526;50.948;6.590;2023-03-19T10:34:13;15.80;99.90
74171;DHT22;62526;50.948;6.590;2023-03-19T10:36:38;15.80;99.90
74171;DHT22;62526;50.948;6.590;2023-03-19T10:39:05;15.90;99.90
74171;DHT22;62526;50.948;6.590;2023-03-19T10:41:49;15.90;99.90
74171;DHT22;62526;50.948;6.590;2023-03-19T10:44:27;15.80;99.90
74171;DHT22;62526;50.948;6.590;2023-03-19T10:46:57;15.90;99.90
74171;DHT22;62526;50.948;6.590;2023-03-19T10:49:23;15.50;99.90
74171;DHT22;62526;50.948;6.590;2023-03-19T10:51:50;15.20;99.90
74171;DHT22;62526;50.948;6.590;2023-03-19T10:54:20;15.10;99.90
74171;DHT22;62526;50.948;6.590;2023-03-19T10:56:45;15.10;99.90
74171;DHT22;62526;50.948;6.590;2023-03-19T10:59:37;15.30;99.90
74171;DHT22;62526;50.948;6.590;2023-03-19T11:02:06;15.60;99.90
74171;DHT22;62526;50.948;6.590;2023-03-19T11:04:28;15.90;99.90
74171;DHT22;62526;50.948;6.590;2023-03-19T11:07:01;16.20;99.90
74171;DHT22;62526;50.948;6.590;2023-03-19T11:09:34;16.20;99.90
74171;DHT22;62526;50.948;6.590;2023-03-19T11:12:14;16.30;99.90
74171;DHT22;62526;50.948;6.590;2023-03-19T11:14:34;16.10;99.90
74171;DHT22;62526;50.948;6.590;2023-03-19T11:17:03;16.30;99.90
74171;DHT22;62526;50.948;6.590;2023-03-19T11:19:29;16.50;99.90
74171;DHT22;62526;50.948;6.590;2023-03-19T11:22:02;16.70;99.90
74171;DHT22;62526;50.948;6.590;2023-03-19T11:24:30;16.80;99.90
74171;DHT22;62526;50.948;6.590;2023-03-19T11:26:54;17.10;99.90
74171;DHT22;62526;50.948;6.590;2023-03-19T11:29:20;17.50;99.90
74171;DHT22;62526;50.948;6.590;2023-03-19T11:31:51;17.60;99.90
74171;DHT22;62526;50.948;6.590;2023-03-19T11:34:24;17.80;99.90
74171;DHT22;62526;50.948;6.590;2023-03-19T11:37:06;18.00;99.90
74171;DHT22;62526;50.948;6.590;2023-03-19T11:39:37;18.40;99.90
74171;DHT22;62526;50.948;6.590;2023-03-19T11:42:17;18.60;99.90
74171;DHT22;62526;50.948;6.590;2023-03-19T11:44:51;18.70;99.90
74171;DHT22;62526;50.948;6.590;2023-03-19T11:47:23;18.90;99.90
74171;DHT22;62526;50.948;6.590;2023-03-19T11:53:00;18.50;99.90
74171;DHT22;62526;50.948;6.590;2023-03-19T11:55:18;18.20;99.90
74171;DHT22;62526;50.948;6.590;2023-03-19T11:58:02;18.20;99.90
74171;DHT22;62526;50.948;6.590;2023-03-19T12:00:28;18.30;99.90
74171;DHT22;62526;50.948;6.590;2023-03-19T12:05:30;19.10;99.90
74171;DHT22;62526;50.948;6.590;2023-03-19T12:10:39;19.40;99.90
74171;DHT22;62526;50.948;6.590;2023-03-19T12:13:11;19.50;99.90
74171;DHT22;62526;50.948;6.590;2023-03-19T12:26:31;20.00;99.90
74171;DHT22;62526;50.948;6.590;2023-03-19T12:34:25;19.70;99.90
74171;DHT22;62526;50.948;6.590;2023-03-19T12:36:52;19.50;99.90
74171;DHT22;62526;50.948;6.590;2023-03-19T12:39:18;19.20;99.90
74171;DHT22;62526;50.948;6.590;2023-03-19T12:41:44;18.90;99.90
74171;DHT22;62526;50.948;6.590;2023-03-19T12:44:21;18.60;99.90
74171;DHT22;62526;50.948;6.590;2023-03-19T12:46:49;18.60;99.90
74171;DHT22;62526;50.948;6.590;2023-03-19T12:49:22;18.60;99.90
74171;DHT22;62526;50.948;6.590;2023-03-19T12:51:54;18.50;99.90
74171;DHT22;62526;50.948;6.590;2023-03-19T12:54:20;18.30;99.90
74171;DHT22;62526;50.948;6.590;2023-03-19T12:56:55;18.30;99.90
74171;DHT22;62526;50.948;6.590;2023-03-19T12:59:28;18.20;99.90
74171;DHT22;62526;50.948;6.590;2023-03-19T13:01:56;18.00;99.90
74171;DHT22;62526;50.948;6.590;2023-03-19T13:04:22;17.90;99.90
74171;DHT22;62526;50.948;6.590;2023-03-19T13:06:52;17.60;99.90
74171;DHT22;62526;50.948;6.590;2023-03-19T13:09:23;17.50;99.90
74171;DHT22;62526;50.948;6.590;2023-03-19T13:11:51;17.30;99.90
74171;DHT22;62526;50.948;6.590;2023-03-19T13:14:21;17.10;99.90
74171;DHT22;62526;50.948;6.590;2023-03-19T13:16:55;17.00;99.90
74171;DHT22;62526;50.948;6.590;2023-03-19T13:19:24;16.90;99.90
74171;DHT22;62526;50.948;6.590;2023-03-19T13:21:47;16.80;99.90
74171;DHT22;62526;50.948;6.590;2023-03-19T13:26:46;16.60;99.90
74171;DHT22;62526;50.948;6.590;2023-03-19T13:29:22;16.60;99.90
74171;DHT22;62526;50.948;6.590;2023-03-19T13:31:49;16.60;99.90
74171;DHT22;62526;50.948;6.590;2023-03-19T13:34:31;16.60;99.90
74171;DHT22;62526;50.948;6.590;2023-03-19T13:37:13;16.50;99.90
74171;DHT22;62526;50.948;6.590;2023-03-19T13:39:39;16.60;99.90
74171;DHT22;62526;50.948;6.590;2023-03-19T13:44:47;16.60;99.90
74171;DHT22;62526;50.948;6.590;2023-03-19T13:52:49;16.30;99.90
74171;DHT22;62526;50.948;6.590;2023-03-19T13:55:43;16.30;99.90
74171;DHT22;62526;50.948;6.590;2023-03-19T13:58:12;16.20;99.90
74171;DHT22;62526;50.948;6.590;2023-03-19T14:00:54;16.20;99.90
74171;DHT22;62526;50.948;6.590;2023-03-19T14:03:21;16.10;99.90
74171;DHT22;62526;50.948;6.590;2023-03-19T14:05:50;16.10;99.90
74171;DHT22;62526;50.948;6.590;2023-03-19T14:08:19;16.10;99.90
74171;DHT22;62526;50.948;6.590;2023-03-19T14:10:47;16.10;99.90
74171;DHT22;62526;50.948;6.590;2023-03-19T14:13:18;16.10;99.90
74171;DHT22;62526;50.948;6.590;2023-03-19T14:15:46;16.10;99.90
74171;DHT22;62526;50.948;6.590;2023-03-19T14:18:10;16.00;99.90
74171;DHT22;62526;50.948;6.590;2023-03-19T14:20:44;15.90;99.90
74171;DHT22;62526;50.948;6.590;2023-03-19T14:23:17;15.80;99.90
74171;DHT22;62526;50.948;6.590;2023-03-19T14:28:16;15.60;99.90
74171;DHT22;62526;50.948;6.590;2023-03-19T14:30:45;15.60;99.90
74171;DHT22;62526;50.948;6.590;2023-03-19T14:33:16;15.50;99.90
74171;DHT22;62526;50.948;6.590;2023-03-19T14:35:41;15.50;99.90
74171;DHT22;62526;50.948;6.590;2023-03-19T14:38:10;15.50;99.90
74171;DHT22;62526;50.948;6.590;2023-03-19T14:40:42;15.50;99.90
74171;DHT22;62526;50.948;6.590;2023-03-19T14:43:22;15.50;99.90
74171;DHT22;62526;50.948;6.590;2023-03-19T14:45:59;15.40;99.90
74171;DHT22;62526;50.948;6.590;2023-03-19T14:48:44;15.40;99.90
74171;DHT22;62526;50.948;6.590;2023-03-19T14:51:25;15.40;99.90
74171;DHT22;62526;50.948;6.590;2023-03-19T14:53:51;15.40;99.90
74171;DHT22;62526;50.948;6.590;2023-03-19T14:56:20;15.40;99.90
74171;DHT22;62526;50.948;6.590;2023-03-19T14:58:55;15.30;99.90
74171;DHT22;62526;50.948;6.590;2023-03-19T15:01:23;15.30;99.90
74171;DHT22;62526;50.948;6.590;2023-03-19T15:06:36;15.40;99.90
74171;DHT22;62526;50.948;6.590;2023-03-19T15:09:05;15.30;99.90
74171;DHT22;62526;50.948;6.590;2023-03-19T15:11:35;15.30;99.90
74171;DHT22;62526;50.948;6.590;2023-03-19T15:14:03;15.20;99.90
74171;DHT22;62526;50.948;6.590;2023-03-19T15:16:45;15.10;99.90
74171;DHT22;62526;50.948;6.590;2023-03-19T15:19:09;15.10;99.90
74171;DHT22;62526;50.948;6.590;2023-03-19T15:21:36;15.10;99.90
74171;DHT22;62526;50.948;6.590;2023-03-19T15:24:03;15.10;99.90
74171;DHT22;62526;50.948;6.590;2023-03-19T15:26:31;15.20;99.90
74171;DHT22;62526;50.948;6.590;2023-03-19T15:28:56;15.30;99.90
74171;DHT22;62526;50.948;6.590;2023-03-19T15:31:23;15.40;99.90
74171;DHT22;62526;50.948;6.590;2023-03-19T15:33:49;15.50;99.90
74171;DHT22;62526;50.948;6.590;2023-03-19T15:36:21;15.60;99.90
74171;DHT22;62526;50.948;6.590;2023-03-19T15:38:49;15.70;99.90
74171;DHT22;62526;50.948;6.590;2023-03-19T15:41:14;15.60;99.90
74171;DHT22;62526;50.948;6.590;2023-03-19T15:43:41;15.70;99.90
74171;DHT22;62526;50.948;6.590;2023-03-19T15:46:10;15.60;99.90
74171;DHT22;62526;50.948;6.590;2023-03-19T15:48:40;15.50;99.90
74171;DHT22;62526;50.948;6.590;2023-03-19T15:51:05;15.30;99.90
74171;DHT22;62526;50.948;6.590;2023-03-19T15:53:32;15.40;99.90
74171;DHT22;62526;50.948;6.590;2023-03-19T15:56:00;15.30;99.90
74171;DHT22;62526;50.948;6.590;2023-03-19T15:58:28;15.30;99.90
74171;DHT22;62526;50.948;6.590;2023-03-19T16:00:53;15.30;99.90
74171;DHT22;62526;50.948;6.590;2023-03-19T16:03:33;15.30;99.90
74171;DHT22;62526;50.948;6.590;2023-03-19T16:06:01;15.30;99.90
74171;DHT22;62526;50.948;6.590;2023-03-19T16:08:27;15.10;99.90
74171;DHT22;62526;50.948;6.590;2023-03-19T16:10:54;14.70;99.90
74171;DHT22;62526;50.948;6.590;2023-03-19T16:13:27;14.30;99.90
74171;DHT22;62526;50.948;6.590;2023-03-19T16:16:01;14.00;99.90
74171;DHT22;62526;50.948;6.590;2023-03-19T16:18:29;13.90;99.90
74171;DHT22;62526;50.948;6.590;2023-03-19T16:21:01;13.80;99.90
74171;DHT22;62526;50.948;6.590;2023-03-19T16:23:34;14.00;99.90
74171;DHT22;62526;50.948;6.590;2023-03-19T16:26:04;14.10;99.90
74171;DHT22;62526;50.948;6.590;2023-03-19T16:28:29;14.30;99.90
74171;DHT22;62526;50.948;6.590;2023-03-19T16:30:57;14.40;99.90